Time;durP1;ratioP1;P1;durP2;ratioP2;P2;SDS_P1;SDS_P2;PMS_P1;PMS_P2;Temp;Humidity;BMP_temperature;BMP_pressure;BME280_temperature;BME280_humidity;BME280_pressure;Samples;Min_cycle;Max_cycle;Signal;HPM_P1;HPM_P2
2022/08/23 00:02:07;;;;;;;5.22;3.58;;;16.00;99.90;;;;;;6154071;23;20009;-82
2022/08/23 00:04:39;;;;;;;5.10;3.33;;;16.10;99.90;;;;;;6129932;23;20442;-82
2022/08/23 00:07:11;;;;;;;5.97;3.20;;;16.10;99.90;;;;;;6156219;23;20013;-82
2022/08/23 00:10:17;;;;;;;8.73;3.30;;;16.10;99.90;;;;;;6129986;23;20462;-82
2022/08/23 00:12:45;;;;;;;5.05;3.55;;;16.10;99.90;;;;;;6130123;23;20016;-82
2022/08/23 00:15:14;;;;;;;12.40;3.72;;;16.10;99.90;;;;;;6154582;23;20705;-82
2022/08/23 00:17:41;;;;;;;8.00;3.35;;;15.90;99.90;;;;;;6130021;23;20028;-82
2022/08/23 00:20:10;;;;;;;7.65;3.25;;;15.80;99.90;;;;;;6130449;23;20013;-82
2022/08/23 00:22:37;;;;;;;5.03;3.72;;;15.70;99.90;;;;;;6130350;23;20318;-82
2022/08/23 00:25:04;;;;;;;6.93;3.63;;;15.60;99.90;;;;;;6154630;23;20085;-82
2022/08/23 00:27:30;;;;;;;7.00;3.40;;;15.60;99.90;;;;;;6130217;23;20009;-82
2022/08/23 00:29:57;;;;;;;5.07;3.40;;;15.50;99.90;;;;;;6154576;23;20089;-81
2022/08/23 00:32:32;;;;;;;7.05;3.10;;;15.40;99.90;;;;;;6129681;23;20476;-82
2022/08/23 00:34:59;;;;;;;6.82;3.78;;;15.40;99.90;;;;;;6128713;23;20140;-82
2022/08/23 00:37:27;;;;;;;7.25;3.35;;;15.40;99.90;;;;;;6154275;23;20028;-82
2022/08/23 00:39:52;;;;;;;9.35;3.60;;;15.50;99.90;;;;;;6128771;23;20411;-82
2022/08/23 00:48:45;;;;;;;6.22;3.20;;;15.60;99.90;;;;;;6154456;23;20020;-82
2022/08/23 00:51:20;;;;;;;4.72;3.30;;;15.60;99.90;;;;;;6154184;23;20060;-82
2022/08/23 00:53:56;;;;;;;5.90;3.88;;;15.50;99.90;;;;;;6154615;23;20059;-82
2022/08/23 00:56:24;;;;;;;9.02;3.88;;;15.50;99.90;;;;;;6130158;23;20012;-82
2022/08/23 00:58:49;;;;;;;8.02;3.72;;;15.50;99.90;;;;;;6130130;23;20006;-82
2022/08/23 01:01:52;;;;;;;6.13;3.40;;;15.50;99.90;;;;;;6129725;23;20004;-82
2022/08/23 01:05:11;;;;;;;9.85;3.53;;;15.50;99.90;;;;;;6129619;23;20016;-82
2022/08/23 01:07:49;;;;;;;11.27;3.20;;;15.50;99.90;;;;;;6129157;23;20466;-82
2022/08/23 01:10:26;;;;;;;7.57;3.70;;;15.40;99.90;;;;;;6129521;23;20009;-82
2022/08/23 01:12:59;;;;;;;7.43;3.33;;;15.30;99.90;;;;;;6129640;23;20088;-82
2022/08/23 01:15:31;;;;;;;4.70;2.92;;;15.30;99.90;;;;;;6129102;23;20009;-82
2022/08/23 01:18:53;;;;;;;6.78;3.50;;;15.20;99.90;;;;;;6129651;23;20041;-82
2022/08/23 01:24:27;;;;;;;6.30;3.50;;;15.20;99.90;;;;;;6153757;23;20234;-82
2022/08/23 01:26:52;;;;;;;8.52;3.60;;;15.20;99.90;;;;;;6153798;23;20041;-82
2022/08/23 01:29:18;;;;;;;7.07;3.95;;;15.20;99.90;;;;;;6128695;23;20014;-82
2022/08/23 01:31:44;;;;;;;7.18;3.72;;;15.30;99.90;;;;;;6153467;23;20091;-82
2022/08/23 01:34:12;;;;;;;10.40;3.63;;;15.20;99.90;;;;;;6128615;23;20009;-82
2022/08/23 01:36:41;;;;;;;13.45;4.20;;;15.10;99.90;;;;;;6129062;23;20032;-82
2022/08/23 01:39:07;;;;;;;9.18;3.85;;;15.00;99.90;;;;;;6128947;23;20021;-82
2022/08/23 01:41:33;;;;;;;6.20;3.42;;;15.00;99.90;;;;;;6128892;23;20013;-82
2022/08/23 01:43:59;;;;;;;4.20;3.40;;;14.90;99.90;;;;;;6152683;23;20033;-82
2022/08/23 01:46:26;;;;;;;8.93;3.10;;;14.90;99.90;;;;;;6129510;23;20023;-82
2022/08/23 01:48:54;;;;;;;7.07;3.78;;;14.80;99.90;;;;;;6129230;23;20430;-82
2022/08/23 01:51:21;;;;;;;8.40;3.97;;;14.80;99.90;;;;;;6128915;23;20063;-82
2022/08/23 01:53:48;;;;;;;6.55;3.35;;;14.80;99.90;;;;;;6128711;23;20457;-82
2022/08/23 01:56:18;;;;;;;6.30;3.60;;;14.80;99.90;;;;;;6153886;23;20422;-82
2022/08/23 01:58:45;;;;;;;7.33;3.60;;;14.80;99.90;;;;;;6128869;23;20009;-82
2022/08/23 02:01:11;;;;;;;7.65;3.60;;;14.70;99.90;;;;;;6153437;23;20084;-82
2022/08/23 02:03:37;;;;;;;7.97;3.60;;;14.80;99.90;;;;;;6129216;23;20045;-82
2022/08/23 02:06:03;;;;;;;5.85;3.63;;;14.70;99.90;;;;;;6153817;23;20017;-82
2022/08/23 02:11:17;;;;;;;4.80;3.30;;;14.60;99.90;;;;;;6153740;23;20469;-82
2022/08/23 02:13:45;;;;;;;;;;;14.70;99.90;;;;;;6129501;23;20014;-82
2022/08/23 02:16:13;;;;;;;11.45;4.05;;;14.70;99.90;;;;;;6129274;23;19905;-82
2022/08/23 02:18:39;;;;;;;8.00;3.70;;;14.80;99.90;;;;;;6128635;23;20014;-82
2022/08/23 02:21:05;;;;;;;9.45;3.63;;;14.70;99.90;;;;;;6129131;23;20089;-82
2022/08/23 02:23:32;;;;;;;7.03;3.40;;;14.60;99.90;;;;;;6153101;23;20381;-82
2022/08/23 02:25:57;;;;;;;6.63;3.30;;;14.60;99.90;;;;;;6153581;23;20017;-82
2022/08/23 02:28:24;;;;;;;11.02;3.53;;;14.50;99.90;;;;;;6129365;23;20006;-82
2022/08/23 02:30:50;;;;;;;7.00;3.42;;;14.50;99.90;;;;;;6129134;23;20024;-82
2022/08/23 02:33:16;;;;;;;6.70;4.00;;;14.40;99.90;;;;;;6153467;23;20337;-82
2022/08/23 02:35:43;;;;;;;5.18;3.97;;;14.40;99.90;;;;;;6128887;23;20009;-82
2022/08/23 02:38:11;;;;;;;5.40;3.75;;;14.30;99.90;;;;;;6128626;23;20005;-82
2022/08/23 02:40:38;;;;;;;6.00;3.83;;;14.20;99.90;;;;;;6128727;23;20555;-82
2022/08/23 02:43:05;;;;;;;7.88;3.55;;;14.10;99.90;;;;;;6128354;23;20013;-82
2022/08/23 02:45:32;;;;;;;6.07;3.72;;;14.10;99.90;;;;;;6129167;23;20402;-82
2022/08/23 02:47:58;;;;;;;7.25;3.63;;;14.00;99.90;;;;;;6153518;23;20013;-82
2022/08/23 02:50:31;;;;;;;6.90;3.75;;;14.00;99.90;;;;;;6130226;23;20430;-82
2022/08/23 02:52:57;;;;;;;8.60;4.18;;;14.00;99.90;;;;;;6152885;23;20341;-82
2022/08/23 02:55:24;;;;;;;9.63;3.70;;;14.10;99.90;;;;;;6153070;23;20423;-82
2022/08/23 02:57:50;;;;;;;5.03;3.35;;;14.10;99.90;;;;;;6153153;23;20095;-82
2022/08/23 03:00:17;;;;;;;8.35;3.30;;;14.20;99.90;;;;;;6128716;23;20006;-82
2022/08/23 03:02:44;;;;;;;3.47;2.97;;;14.30;99.90;;;;;;6128728;23;20065;-82
2022/08/23 03:05:11;;;;;;;7.25;3.22;;;14.30;99.90;;;;;;6130553;23;20493;-82
2022/08/23 03:07:38;;;;;;;7.72;3.70;;;14.30;99.90;;;;;;6130708;23;20013;-82
2022/08/23 03:10:05;;;;;;;8.43;4.13;;;14.30;99.90;;;;;;6130634;23;20033;-82
2022/08/23 03:12:35;;;;;;;18.60;4.80;;;14.30;99.90;;;;;;6131396;23;20013;-82
2022/08/23 03:15:02;;;;;;;7.10;3.22;;;14.30;99.90;;;;;;6130407;23;20033;-82
2022/08/23 03:17:28;;;;;;;8.55;3.58;;;14.50;99.90;;;;;;6130462;23;20006;-82
2022/08/23 03:19:54;;;;;;;4.00;2.88;;;14.50;99.90;;;;;;6131109;23;20503;-82
2022/08/23 03:22:22;;;;;;;4.43;3.35;;;14.50;99.90;;;;;;6130636;23;20040;-82
2022/08/23 03:24:48;;;;;;;6.20;3.78;;;14.50;99.90;;;;;;6130228;23;20020;-82
2022/08/23 03:27:14;;;;;;;4.95;3.33;;;14.50;99.90;;;;;;6130534;23;20346;-82
2022/08/23 03:29:41;;;;;;;8.75;3.63;;;14.50;99.90;;;;;;6130943;23;20014;-82
2022/08/23 03:32:07;;;;;;;4.47;3.30;;;14.40;99.90;;;;;;6130760;23;20706;-82
2022/08/23 03:34:35;;;;;;;5.00;3.05;;;14.30;99.90;;;;;;6131364;23;20422;-82
2022/08/23 03:37:01;;;;;;;5.95;3.72;;;14.20;99.90;;;;;;6131028;23;20016;-82
2022/08/23 03:39:27;;;;;;;7.38;3.65;;;14.00;99.90;;;;;;6130789;23;20017;-82
2022/08/23 03:41:55;;;;;;;8.52;3.92;;;14.00;99.90;;;;;;6131099;23;20021;-82
2022/08/23 03:44:21;;;;;;;8.38;3.95;;;14.00;99.90;;;;;;6155213;23;20040;-83
2022/08/23 03:46:47;;;;;;;5.60;3.42;;;14.00;99.90;;;;;;6130751;23;20021;-82
2022/08/23 03:49:13;;;;;;;7.03;3.53;;;14.10;99.90;;;;;;6130762;23;20505;-82
2022/08/23 03:51:46;;;;;;;13.50;3.75;;;14.20;99.90;;;;;;6132113;23;20009;-83
2022/08/23 03:54:12;;;;;;;4.35;3.25;;;14.20;99.90;;;;;;6155059;23;20012;-82
2022/08/23 03:56:50;;;;;;;7.30;5.10;;;14.20;99.90;;;;;;6130732;23;20010;-82
2022/08/23 03:59:16;;;;;;;10.38;4.63;;;14.20;99.90;;;;;;6155577;23;20058;-82
2022/08/23 04:01:43;;;;;;;7.20;3.88;;;14.10;99.90;;;;;;6154061;23;20009;-82
2022/08/23 04:07:56;;;;;;;7.47;3.92;;;14.00;99.90;;;;;;6156988;23;20060;-82
2022/08/23 04:10:24;;;;;;;8.43;4.13;;;14.00;99.90;;;;;;6154791;23;20009;-82
2022/08/23 04:12:53;;;;;;;5.10;4.00;;;14.00;99.90;;;;;;6131187;23;20009;-82
2022/08/23 04:15:19;;;;;;;5.93;3.45;;;14.00;99.90;;;;;;6130607;23;20442;-82
2022/08/23 04:17:46;;;;;;;8.40;3.78;;;14.00;99.90;;;;;;6130735;23;20545;-82
2022/08/23 04:20:13;;;;;;;7.60;4.15;;;13.80;99.90;;;;;;6130194;23;20009;-82
2022/08/23 04:22:54;;;;;;;7.70;3.95;;;13.80;99.90;;;;;;6133166;23;20434;-82
2022/08/23 04:25:21;;;;;;;6.32;3.75;;;13.70;99.90;;;;;;6130040;23;20040;-82
2022/08/23 04:27:47;;;;;;;5.25;3.75;;;13.60;99.90;;;;;;6130324;23;20014;-82
2022/08/23 04:30:15;;;;;;;9.88;3.65;;;13.50;99.90;;;;;;6130588;23;20014;-83
2022/08/23 04:32:41;;;;;;;7.55;3.38;;;13.40;99.90;;;;;;6130681;23;20006;-83
2022/08/23 04:35:07;;;;;;;4.60;3.35;;;13.40;99.90;;;;;;6153929;23;20063;-83
2022/08/23 04:37:34;;;;;;;6.35;3.28;;;13.30;99.90;;;;;;6129860;23;20009;-83
2022/08/23 04:42:44;;;;;;;7.13;4.47;;;13.30;99.90;;;;;;6155075;23;20017;-83
2022/08/23 04:45:13;;;;;;;5.82;4.05;;;13.30;99.90;;;;;;6130659;23;20005;-83
2022/08/23 04:47:44;;;;;;;5.30;3.83;;;13.30;99.90;;;;;;6155235;23;20007;-83
2022/08/23 04:50:11;;;;;;;6.45;3.50;;;13.40;99.90;;;;;;6130304;23;20010;-83
2022/08/23 04:52:55;;;;;;;8.57;3.92;;;13.50;99.90;;;;;;6133717;23;20088;-83
2022/08/23 04:55:21;;;;;;;7.72;4.18;;;13.60;99.90;;;;;;6129551;23;20041;-83
2022/08/23 04:57:51;;;;;;;5.15;3.42;;;13.60;99.90;;;;;;6131116;23;20021;-83
2022/08/23 05:00:21;;;;;;;8.15;3.75;;;13.80;99.90;;;;;;6154308;23;20019;-83
2022/08/23 05:02:51;;;;;;;6.63;3.60;;;13.90;99.90;;;;;;6130462;23;20009;-83
2022/08/23 05:05:18;;;;;;;5.57;3.55;;;14.10;99.90;;;;;;6154436;23;20021;-83
2022/08/23 05:07:45;;;;;;;6.47;3.58;;;14.10;99.90;;;;;;6130253;23;20016;-82
2022/08/23 05:10:15;;;;;;;6.50;3.60;;;14.20;99.90;;;;;;6129566;23;20354;-83
2022/08/23 05:12:45;;;;;;;4.80;3.38;;;14.40;99.90;;;;;;6130674;23;20012;-83
2022/08/23 05:15:11;;;;;;;9.07;3.75;;;14.40;99.90;;;;;;6129903;23;20012;-83
2022/08/23 05:17:41;;;;;;;4.88;3.20;;;14.60;99.90;;;;;;6131415;23;20002;-84
2022/08/23 05:20:09;;;;;;;7.20;3.40;;;14.70;99.90;;;;;;6154951;23;20064;-83
2022/08/23 05:22:38;;;;;;;7.20;3.65;;;14.80;99.90;;;;;;6129788;23;20706;-83
2022/08/23 05:25:48;;;;;;;11.38;3.83;;;14.90;99.90;;;;;;6133814;23;20108;-83
2022/08/23 05:28:19;;;;;;;7.38;3.85;;;15.10;99.90;;;;;;6130119;23;20567;-83
2022/08/23 05:30:59;;;;;;;5.00;3.13;;;15.20;99.90;;;;;;6129174;23;20087;-83
2022/08/23 05:33:26;;;;;;;6.38;3.50;;;15.40;99.90;;;;;;6129371;23;20009;-84
2022/08/23 05:35:52;;;;;;;8.43;3.50;;;15.60;99.90;;;;;;6129517;23;20417;-83
2022/08/23 05:38:19;;;;;;;8.55;3.20;;;15.80;99.90;;;;;;6154193;23;20001;-83
2022/08/23 05:40:51;;;;;;;5.07;3.30;;;15.90;99.90;;;;;;6130054;23;20009;-83
2022/08/23 05:43:18;;;;;;;4.55;3.40;;;16.00;99.90;;;;;;6129091;23;20013;-83
2022/08/23 05:46:01;;;;;;;7.57;3.30;;;16.20;99.90;;;;;;6129578;23;20084;-83
2022/08/23 05:48:27;;;;;;;3.45;2.70;;;16.20;99.90;;;;;;6129871;23;20037;-83
2022/08/23 05:51:06;;;;;;;5.85;4.22;;;16.30;99.90;;;;;;6153849;23;20584;-83
2022/08/23 05:53:32;;;;;;;5.50;3.13;;;16.40;99.90;;;;;;6153684;23;20426;-83
2022/08/23 05:56:27;;;;;;;11.82;3.33;;;16.40;99.90;;;;;;6129384;23;20010;-83
2022/08/23 05:58:56;;;;;;;3.75;2.75;;;16.40;99.90;;;;;;6128005;23;20013;-83
2022/08/23 06:01:23;;;;;;;8.02;3.38;;;16.40;99.90;;;;;;6128390;23;20314;-83
2022/08/23 06:03:52;;;;;;;6.32;2.67;;;16.50;99.90;;;;;;6129268;23;20346;-83
2022/08/23 06:06:19;;;;;;;5.15;3.03;;;16.50;99.90;;;;;;6129253;23;20084;-83
2022/08/23 06:08:47;;;;;;;4.30;3.10;;;16.60;99.90;;;;;;6129488;23;20014;-83
2022/08/23 06:11:19;;;;;;;4.00;3.00;;;16.70;99.90;;;;;;6154169;23;20009;-83
2022/08/23 06:13:48;;;;;;;5.20;2.80;;;16.80;99.90;;;;;;6129374;23;20676;-83
2022/08/23 06:16:16;;;;;;;4.75;2.83;;;16.90;99.90;;;;;;6129161;23;20009;-83
2022/08/23 06:18:44;;;;;;;7.35;3.22;;;17.10;99.90;;;;;;6154042;23;20017;-83
2022/08/23 06:21:31;;;;;;;6.63;3.20;;;17.20;99.90;;;;;;6154346;23;20037;-83
2022/08/23 06:23:57;;;;;;;7.10;2.95;;;17.40;99.90;;;;;;6153889;23;20009;-83
2022/08/23 06:26:37;;;;;;;5.70;3.05;;;17.50;99.90;;;;;;6129596;23;20308;-84
2022/08/23 06:29:06;;;;;;;4.32;2.88;;;17.80;99.90;;;;;;6129468;23;20392;-84
2022/08/23 06:31:46;;;;;;;13.85;3.05;;;18.00;99.90;;;;;;6129602;23;20033;-84
2022/08/23 06:34:32;;;;;;;5.07;2.72;;;18.20;99.90;;;;;;6131608;23;20015;-84
2022/08/23 06:37:18;;;;;;;7.13;3.35;;;18.30;99.90;;;;;;6153319;23;20001;-83
2022/08/23 06:40:27;;;;;;;4.82;2.95;;;18.60;99.90;;;;;;6154766;23;20071;-83
2022/08/23 06:43:13;;;;;;;6.78;3.00;;;18.70;99.90;;;;;;6108435;23;20009;-83
2022/08/23 06:45:52;;;;;;;4.25;2.53;;;18.80;99.90;;;;;;6131504;23;20010;-83
2022/08/23 06:48:19;;;;;;;5.45;2.70;;;19.00;99.90;;;;;;6129063;23;20641;-84
2022/08/23 06:50:45;;;;;;;5.88;3.10;;;19.10;99.90;;;;;;6127803;23;20041;-83
2022/08/23 06:53:31;;;;;;;6.57;3.10;;;19.20;99.90;;;;;;6093846;23;20037;-84
2022/08/23 06:56:17;;;;;;;9.15;3.10;;;19.30;99.90;;;;;;6152741;23;20085;-84
2022/08/23 06:59:52;;;;;;;7.95;3.33;;;19.40;99.90;;;;;;6153551;23;20337;-84
2022/08/23 07:02:38;;;;;;;5.50;2.90;;;19.50;99.90;;;;;;6122623;23;20009;-84
2022/08/23 07:05:27;;;;;;;3.33;2.50;;;19.60;99.90;;;;;;6099202;23;20010;-85
2022/08/23 07:08:15;;;;;;;4.95;2.30;;;19.70;99.90;;;;;;6138223;23;20013;-84
2022/08/23 07:10:42;;;;;;;2.95;2.58;;;19.80;99.90;;;;;;6128495;23;20028;-84
2022/08/23 07:13:08;;;;;;;4.50;2.67;;;19.80;99.90;;;;;;6128436;23;20017;-84
2022/08/23 07:15:34;;;;;;;5.82;2.78;;;20.00;99.90;;;;;;6128656;23;20006;-85
2022/08/23 07:18:02;;;;;;;4.53;2.78;;;20.20;99.90;;;;;;6129321;23;20032;-84
2022/08/23 07:20:29;;;;;;;6.75;2.95;;;20.30;99.90;;;;;;6129258;23;20013;-84
2022/08/23 07:22:56;;;;;;;6.55;2.95;;;20.40;99.90;;;;;;6154644;23;20121;-84
2022/08/23 07:25:22;;;;;;;6.50;2.63;;;20.50;99.90;;;;;;6153372;23;20013;-84
2022/08/23 07:27:53;;;;;;;;;;;20.60;99.90;;;;;;6154423;23;20014;-84
2022/08/23 07:30:19;;;;;;;4.65;2.67;;;20.70;99.90;;;;;;6153362;23;19913;-84
2022/08/23 07:32:46;;;;;;;6.88;3.35;;;20.80;99.90;;;;;;6153053;23;20088;-84
2022/08/23 07:35:22;;;;;;;5.28;2.80;;;20.90;99.90;;;;;;6130735;23;20032;-84
2022/08/23 07:37:50;;;;;;;4.10;2.63;;;21.00;99.90;;;;;;6128811;23;20033;-84
2022/08/23 07:40:28;;;;;;;5.07;2.95;;;21.00;99.90;;;;;;6128684;23;20010;-84
2022/08/23 07:42:57;;;;;;;9.13;3.10;;;21.10;99.90;;;;;;6128723;23;20341;-84
2022/08/23 07:45:23;;;;;;;4.72;2.97;;;21.10;99.90;;;;;;6128567;23;20048;-84
2022/08/23 07:47:53;;;;;;;3.55;2.92;;;21.20;99.90;;;;;;6129375;23;20036;-85
2022/08/23 07:50:19;;;;;;;5.53;2.60;;;21.20;99.90;;;;;;6154944;23;20377;-84
2022/08/23 07:52:45;;;;;;;5.40;2.83;;;21.30;99.90;;;;;;6130473;23;20088;-84
2022/08/23 07:55:11;;;;;;;7.28;3.47;;;21.40;99.90;;;;;;6129881;23;20010;-84
2022/08/23 07:57:55;;;;;;;8.63;2.97;;;21.50;99.90;;;;;;6155746;23;20036;-84
2022/08/23 08:00:47;;;;;;;5.15;2.80;;;21.70;99.90;;;;;;6152841;23;20010;-84
2022/08/23 08:03:35;;;;;;;8.35;3.38;;;21.60;99.90;;;;;;6153631;23;20018;-84
2022/08/23 08:06:47;;;;;;;7.18;2.80;;;21.70;99.90;;;;;;6132610;23;20008;-84
2022/08/23 08:09:14;;;;;;;5.45;2.72;;;21.90;99.90;;;;;;6129869;23;20010;-84
2022/08/23 08:11:46;;;;;;;7.75;2.83;;;22.20;99.90;;;;;;6130302;23;20087;-84
2022/08/23 08:14:13;;;;;;;;;;;22.30;99.90;;;;;;6130333;23;20010;-84
2022/08/23 08:16:49;;;;;;;6.35;3.33;;;22.40;99.90;;;;;;6154255;23;19911;-84
2022/08/23 08:19:22;;;;;;;7.57;2.60;;;22.50;99.90;;;;;;6131328;23;20009;-84
2022/08/23 08:22:06;;;;;;;4.60;2.75;;;22.60;99.90;;;;;;6155836;23;20536;-85
2022/08/23 08:24:50;;;;;;;5.57;2.80;;;22.60;99.90;;;;;;6154568;23;20024;-84
2022/08/23 08:27:17;;;;;;;7.25;2.70;;;22.70;99.90;;;;;;6130006;23;20024;-85
2022/08/23 08:29:43;;;;;;;4.43;2.80;;;22.80;99.90;;;;;;6129527;23;20597;-85
2022/08/23 08:32:09;;;;;;;6.32;3.13;;;22.90;99.90;;;;;;6154418;23;20319;-84
2022/08/23 08:34:37;;;;;;;6.20;3.00;;;22.90;99.90;;;;;;6130072;23;20013;-84
2022/08/23 08:37:03;;;;;;;5.75;2.70;;;22.80;99.90;;;;;;6130593;23;20068;-84
2022/08/23 08:39:31;;;;;;;8.38;2.90;;;22.80;99.90;;;;;;6130231;23;20009;-84
2022/08/23 08:42:08;;;;;;;10.38;2.72;;;22.80;99.90;;;;;;6130288;23;20367;-84
2022/08/23 08:44:55;;;;;;;4.82;2.80;;;22.80;99.90;;;;;;6130115;23;20076;-84
2022/08/23 08:47:45;;;;;;;4.95;2.85;;;22.90;99.90;;;;;;6131531;23;20013;-84
2022/08/23 08:50:32;;;;;;;5.25;3.08;;;22.90;99.90;;;;;;6129877;23;20014;-85
2022/08/23 08:53:29;;;;;;;4.00;2.78;;;22.90;99.90;;;;;;6130311;23;20067;-85
2022/08/23 08:56:24;;;;;;;5.68;2.95;;;23.10;99.90;;;;;;6154844;23;20017;-84
2022/08/23 08:59:17;;;;;;;9.67;3.00;;;23.30;99.90;;;;;;6132110;23;20009;-84
2022/08/23 09:01:44;;;;;;;6.15;3.08;;;23.50;99.90;;;;;;6129058;23;20009;-84
2022/08/23 09:04:13;;;;;;;6.95;2.50;;;23.70;99.90;;;;;;6129709;23;20010;-84
2022/08/23 09:07:12;;;;;;;5.82;2.67;;;24.90;99.00;;;;;;6129977;23;20020;-85
2022/08/23 09:10:01;;;;;;;5.57;2.53;;;26.90;95.30;;;;;;6154108;23;20017;-85
2022/08/23 09:12:33;;;;;;;5.65;2.50;;;28.30;91.90;;;;;;6129562;23;20017;-85
2022/08/23 09:15:28;;;;;;;3.90;2.53;;;29.00;89.80;;;;;;6129480;23;20080;-85
2022/08/23 09:17:59;;;;;;;5.10;2.53;;;30.20;83.50;;;;;;6129578;23;20064;-84
2022/08/23 09:20:28;;;;;;;6.90;2.70;;;30.60;77.50;;;;;;6154334;23;20009;-85
2022/08/23 09:23:06;;;;;;;4.50;2.38;;;30.90;76.90;;;;;;6129826;23;20092;-85
2022/08/23 09:25:33;;;;;;;5.55;1.90;;;31.50;71.70;;;;;;6154280;23;20461;-85
2022/08/23 09:28:05;;;;;;;4.93;2.63;;;31.90;69.70;;;;;;6131194;23;20771;-85
2022/08/23 09:30:48;;;;;;;3.83;2.55;;;31.30;68.10;;;;;;6155458;23;20148;-85
2022/08/23 09:33:17;;;;;;;4.65;2.35;;;29.90;69.60;;;;;;6129426;23;20045;-84
2022/08/23 09:36:01;;;;;;;4.32;2.53;;;29.70;69.70;;;;;;6129715;23;20040;-85
2022/08/23 09:38:28;;;;;;;5.88;2.63;;;29.60;68.90;;;;;;6129070;23;20434;-85
2022/08/23 09:40:59;;;;;;;3.75;2.40;;;29.90;68.90;;;;;;6130738;23;20009;-85
2022/08/23 09:43:28;;;;;;;3.50;2.05;;;30.20;67.70;;;;;;6129542;23;20009;-85
2022/08/23 09:45:59;;;;;;;3.80;2.30;;;30.10;67.70;;;;;;6154195;23;20014;-85
2022/08/23 09:48:43;;;;;;;3.42;2.30;;;29.40;67.30;;;;;;6154286;23;20012;-85
2022/08/23 09:51:40;;;;;;;2.95;2.03;;;29.50;68.20;;;;;;6131386;23;20013;-85
2022/08/23 09:54:17;;;;;;;7.63;2.40;;;29.00;67.40;;;;;;6130387;23;20013;-85
2022/08/23 09:56:58;;;;;;;4.25;2.33;;;28.90;66.90;;;;;;6129764;23;20390;-86
2022/08/23 09:59:24;;;;;;;4.73;2.53;;;28.80;67.70;;;;;;6129600;23;20052;-85
2022/08/23 10:01:56;;;;;;;3.22;2.20;;;28.60;68.20;;;;;;6128788;23;20013;-85
2022/08/23 10:04:36;;;;;;;4.97;2.33;;;28.50;67.70;;;;;;6153389;23;20068;-85
2022/08/23 10:07:26;;;;;;;4.70;2.27;;;28.20;69.60;;;;;;6153676;23;20354;-84
2022/08/23 10:10:11;;;;;;;5.85;2.20;;;28.10;67.40;;;;;;6153148;23;20715;-85
2022/08/23 10:12:37;;;;;;;3.88;2.58;;;28.50;66.60;;;;;;6129297;23;20342;-85
2022/08/23 10:15:04;;;;;;;6.68;2.28;;;29.20;65.90;;;;;;6129149;23;20092;-85
2022/08/23 10:21:44;;;;;;;7.20;2.72;;;29.60;66.00;;;;;;6144665;23;20017;-85
2022/08/23 10:24:22;;;;;;;8.70;2.75;;;30.40;63.90;;;;;;6053374;23;20093;-85
2022/08/23 10:30:12;;;;;;;5.03;2.22;;;31.30;59.80;;;;;;6155629;23;20005;-85
2022/08/23 10:32:54;;;;;;;6.38;2.50;;;31.30;59.70;;;;;;6153956;23;20500;-84
2022/08/23 10:35:51;;;;;;;6.43;2.10;;;31.00;57.60;;;;;;6129581;23;20060;-85
2022/08/23 10:38:49;;;;;;;6.60;2.88;;;31.30;59.00;;;;;;6129718;23;20704;-85
2022/08/23 10:41:57;;;;;;;7.85;2.30;;;31.60;57.40;;;;;;6142115;23;20010;-85
2022/08/23 10:44:39;;;;;;;7.15;2.30;;;31.60;58.40;;;;;;6153089;23;20005;-85
2022/08/23 10:47:26;;;;;;;4.88;2.15;;;31.20;58.90;;;;;;6153241;23;20064;-85
2022/08/23 10:49:53;;;;;;;8.13;2.40;;;31.60;58.90;;;;;;6128822;23;20017;-85
2022/08/23 10:52:28;;;;;;;3.50;2.10;;;31.60;57.70;;;;;;6128814;23;20020;-86
2022/08/23 10:55:04;;;;;;;3.78;2.10;;;32.10;58.40;;;;;;6128517;23;20005;-85
2022/08/23 10:57:39;;;;;;;7.22;1.92;;;32.80;56.60;;;;;;6129305;23;20006;-85
2022/08/23 11:00:16;;;;;;;6.03;2.08;;;32.90;56.00;;;;;;6153740;23;20010;-85
2022/08/23 11:02:54;;;;;;;;;;;33.20;55.70;;;;;;6130390;23;20016;-85
2022/08/23 11:05:31;;;;;;;7.32;2.05;;;33.50;54.90;;;;;;6153917;23;20217;-85
2022/08/23 11:08:02;;;;;;;4.93;1.85;;;32.50;54.70;;;;;;6130307;23;20009;-85
2022/08/23 11:10:59;;;;;;;5.28;2.30;;;31.90;56.20;;;;;;6128802;23;20013;-85
2022/08/23 11:13:32;;;;;;;3.28;1.95;;;31.40;56.50;;;;;;6129955;23;20081;-85
2022/08/23 11:16:28;;;;;;;2.33;1.75;;;31.40;56.30;;;;;;6129668;23;20010;-85
2022/08/23 11:18:57;;;;;;;4.95;2.10;;;31.00;56.10;;;;;;6128214;23;20430;-85
2022/08/23 11:21:43;;;;;;;4.90;1.98;;;31.60;56.30;;;;;;6131301;23;20072;-86
2022/08/23 11:24:13;;;;;;;5.15;2.08;;;32.10;55.00;;;;;;6130393;23;20364;-85
2022/08/23 11:26:40;;;;;;;4.40;1.60;;;31.70;56.10;;;;;;6155818;23;20093;-85
2022/08/23 11:29:22;;;;;;;7.38;2.20;;;31.70;54.60;;;;;;6131394;23;20009;-85
2022/08/23 11:32:21;;;;;;;6.35;2.20;;;32.50;54.30;;;;;;6133761;23;20013;-85
2022/08/23 11:35:04;;;;;;;3.08;2.13;;;33.40;53.70;;;;;;6155419;23;20096;-85
2022/08/23 11:37:58;;;;;;;2.50;1.70;;;33.80;52.00;;;;;;6130511;23;20002;-85
2022/08/23 11:40:37;;;;;;;8.93;1.83;;;33.80;52.80;;;;;;6131202;23;20037;-85
2022/08/23 11:43:28;;;;;;;2.63;1.85;;;33.90;52.40;;;;;;6130606;23;20020;-84
2022/08/23 11:46:27;;;;;;;3.80;2.42;;;33.30;51.60;;;;;;6130552;23;20430;-85
2022/08/23 11:49:27;;;;;;;3.83;1.77;;;32.80;50.70;;;;;;6155538;23;20010;-85
2022/08/23 11:52:08;;;;;;;3.33;2.20;;;33.10;50.60;;;;;;6130843;23;20430;-85
2022/08/23 11:55:14;;;;;;;4.28;2.33;;;31.70;51.70;;;;;;6129701;23;20013;-85
2022/08/23 11:58:03;;;;;;;7.68;2.40;;;31.10;53.60;;;;;;6155341;23;20001;-85
2022/08/23 12:00:54;;;;;;;4.55;2.22;;;30.30;54.00;;;;;;6155388;23;20009;-85
2022/08/23 12:03:33;;;;;;;7.78;2.45;;;29.50;55.20;;;;;;6130243;23;20009;-85
2022/08/23 12:06:04;;;;;;;9.30;2.38;;;29.90;55.40;;;;;;6155104;23;20386;-84
2022/08/23 12:08:50;;;;;;;;;;;30.30;54.20;;;;;;6131070;23;20009;-85
2022/08/23 12:11:53;;;;;;;8.75;2.22;;;31.00;53.70;;;;;;6155629;23;20237;-85
2022/08/23 12:14:31;;;;;;;6.45;1.80;;;30.70;53.40;;;;;;6130712;23;20307;-85
2022/08/23 12:17:03;;;;;;;3.63;2.35;;;30.70;54.80;;;;;;6130560;23;20012;-85
2022/08/23 12:19:40;;;;;;;6.32;2.30;;;31.20;54.70;;;;;;6130592;23;20009;-85
2022/08/23 12:22:16;;;;;;;4.72;1.80;;;31.20;54.50;;;;;;6130957;23;20009;-85
2022/08/23 12:25:02;;;;;;;7.10;2.40;;;31.50;54.40;;;;;;6155241;23;20093;-85
2022/08/23 12:27:51;;;;;;;7.20;2.30;;;31.90;53.30;;;;;;6130899;23;20438;-85
2022/08/23 12:30:21;;;;;;;8.15;2.20;;;31.90;53.40;;;;;;6130246;23;20458;-85
2022/08/23 12:33:04;;;;;;;7.90;2.10;;;31.50;52.40;;;;;;6130760;23;20064;-83
2022/08/23 12:35:48;;;;;;;7.75;2.92;;;31.40;54.30;;;;;;6129956;23;20010;-82
2022/08/23 12:38:30;;;;;;;6.93;2.45;;;31.30;52.10;;;;;;6130509;23;20006;-83
2022/08/23 12:40:56;;;;;;;5.40;2.30;;;31.00;52.80;;;;;;6154945;23;20538;-83
2022/08/23 12:43:25;;;;;;;5.95;2.28;;;30.60;52.40;;;;;;6154452;23;20045;-83
2022/08/23 12:45:59;;;;;;;6.05;1.90;;;30.80;53.00;;;;;;6156352;23;20092;-82
2022/08/23 12:48:29;;;;;;;11.27;2.83;;;30.90;54.40;;;;;;6154882;23;20449;-83
2022/08/23 12:50:58;;;;;;;4.93;2.33;;;30.80;53.00;;;;;;6130183;23;20010;-83
2022/08/23 12:53:31;;;;;;;6.57;2.38;;;30.60;52.90;;;;;;6130030;23;20016;-83
2022/08/23 12:56:04;;;;;;;4.45;2.45;;;30.00;53.60;;;;;;6130581;23;20005;-83
2022/08/23 12:58:32;;;;;;;4.10;3.05;;;30.20;56.20;;;;;;6130524;23;20006;-83
2022/08/23 13:01:02;;;;;;;6.22;2.50;;;30.50;54.70;;;;;;6154210;23;20433;-83
2022/08/23 13:03:40;;;;;;;4.40;1.90;;;30.90;55.50;;;;;;6129471;23;20015;-83
2022/08/23 13:06:08;;;;;;;4.65;2.58;;;31.30;53.80;;;;;;6156614;23;20084;-85
2022/08/23 13:08:41;;;;;;;5.45;2.38;;;31.40;53.10;;;;;;6154549;23;20016;-85
2022/08/23 13:11:09;;;;;;;4.70;2.42;;;31.60;52.80;;;;;;6129966;23;20085;-85
2022/08/23 13:13:38;;;;;;;4.93;1.88;;;32.20;51.80;;;;;;6156041;23;20001;-86
2022/08/23 13:16:31;;;;;;;3.65;2.13;;;32.80;52.70;;;;;;6154562;23;20008;-85
2022/08/23 13:19:16;;;;;;;4.80;2.15;;;33.40;51.90;;;;;;6154394;23;20091;-85
2022/08/23 13:21:43;;;;;;;6.15;2.03;;;33.10;51.10;;;;;;6154768;23;20001;-85
2022/08/23 13:24:33;;;;;;;7.00;2.20;;;32.80;50.10;;;;;;6129903;23;20005;-85
2022/08/23 13:27:21;;;;;;;3.67;2.20;;;32.70;50.20;;;;;;6130441;23;20005;-85
2022/08/23 13:30:07;;;;;;;5.45;1.83;;;32.10;51.50;;;;;;6154677;23;20438;-85
2022/08/23 13:32:47;;;;;;;3.83;2.13;;;31.30;52.70;;;;;;6085139;23;20426;-84
2022/08/23 13:35:30;;;;;;;8.00;2.03;;;30.00;53.50;;;;;;6153862;23;20084;-84
2022/08/23 13:38:39;;;;;;;4.63;2.45;;;29.70;54.80;;;;;;6129369;23;20016;-84
2022/08/23 13:41:30;;;;;;;3.35;2.35;;;30.00;53.90;;;;;;6154466;23;20005;-84
2022/08/23 13:47:26;;;;;;;7.38;2.45;;;29.80;54.60;;;;;;6155373;23;19911;-85
2022/08/23 13:50:22;;;;;;;7.97;2.28;;;29.90;55.20;;;;;;6128996;23;20303;-84
2022/08/23 13:52:48;;;;;;;7.50;2.17;;;30.00;53.80;;;;;;6153602;23;20091;-85
2022/08/23 13:55:14;;;;;;;7.43;2.00;;;30.10;55.40;;;;;;6153664;23;20009;-84
2022/08/23 13:57:40;;;;;;;4.35;2.65;;;30.10;54.60;;;;;;6154056;23;20788;-84